Time;durP1;ratioP1;P1;durP2;ratioP2;P2;SDS_P1;SDS_P2;PMS_P1;PMS_P2;Temp;Humidity;BMP_temperature;BMP_pressure;BME280_temperature;BME280_humidity;BME280_pressure;Samples;Min_cycle;Max_cycle;Signal;HPM_P1;HPM_P2
2023/10/25 00:00:02;;;;;;;14.73;7.55;;;8.70;99.90;;;;;;4995443;28;20114;-44
2023/10/25 00:02:28;;;;;;;12.65;7.65;;;8.70;99.90;;;;;;4992713;28;20054;-44
2023/10/25 00:04:56;;;;;;;12.88;7.78;;;8.60;99.90;;;;;;4994278;28;20514;-46
2023/10/25 00:07:22;;;;;;;13.32;7.90;;;8.70;99.90;;;;;;5005128;28;20046;-44
2023/10/25 00:09:48;;;;;;;14.63;7.80;;;8.60;99.90;;;;;;5013431;28;20140;-42
2023/10/25 00:12:13;;;;;;;12.75;8.48;;;8.60;99.90;;;;;;5003116;28;20046;-43
2023/10/25 00:14:39;;;;;;;12.25;7.93;;;8.60;99.90;;;;;;4991362;28;20485;-44
2023/10/25 00:17:05;;;;;;;12.65;7.70;;;8.50;99.90;;;;;;4993652;28;20165;-43
2023/10/25 00:19:30;;;;;;;14.30;7.88;;;8.60;99.90;;;;;;5004261;28;20117;-45
2023/10/25 00:21:56;;;;;;;14.35;8.55;;;8.60;99.90;;;;;;4999999;28;20045;-44
2023/10/25 00:24:22;;;;;;;13.90;8.27;;;8.60;99.90;;;;;;5001725;28;20038;-43
2023/10/25 00:26:47;;;;;;;12.05;8.30;;;8.60;99.90;;;;;;4995478;28;20038;-43
2023/10/25 00:29:13;;;;;;;12.73;7.78;;;8.50;99.90;;;;;;5009943;28;20551;-42
2023/10/25 00:31:38;;;;;;;13.23;7.90;;;8.50;99.90;;;;;;4983046;28;20049;-45
2023/10/25 00:34:04;;;;;;;11.63;7.35;;;8.50;99.90;;;;;;4990181;28;20397;-46
2023/10/25 00:36:30;;;;;;;14.57;8.00;;;8.50;99.90;;;;;;5009995;28;20054;-43
2023/10/25 00:38:55;;;;;;;12.65;7.65;;;8.50;99.90;;;;;;4991323;28;20578;-46
2023/10/25 00:41:21;;;;;;;12.43;7.60;;;8.40;99.90;;;;;;4994702;28;20124;-42
2023/10/25 00:43:47;;;;;;;13.93;7.93;;;;;;;;;;4992813;28;20038;-45
2023/10/25 00:46:15;;;;;;;12.27;7.82;;;8.40;99.90;;;;;;4992174;28;20097;-43
2023/10/25 00:48:43;;;;;;;;;;;8.50;99.90;;;;;;4990016;28;20061;-45
2023/10/25 00:51:10;;;;;;;10.38;7.13;;;8.50;99.90;;;;;;4992047;28;19926;-43
2023/10/25 00:53:40;;;;;;;14.37;8.23;;;8.50;99.90;;;;;;4993340;28;20461;-45
2023/10/25 00:56:11;;;;;;;10.60;7.05;;;8.50;99.90;;;;;;4992443;28;20046;-45
2023/10/25 00:58:39;;;;;;;13.38;7.25;;;8.50;99.90;;;;;;4992820;28;20042;-42
2023/10/25 01:01:05;;;;;;;10.40;6.88;;;8.40;99.90;;;;;;4996751;28;20125;-48
2023/10/25 01:03:31;;;;;;;11.80;7.32;;;8.50;99.90;;;;;;4993890;28;20121;-43
2023/10/25 01:05:57;;;;;;;12.35;7.38;;;8.40;99.90;;;;;;4994119;28;20410;-43
2023/10/25 01:08:23;;;;;;;10.95;7.10;;;8.40;99.90;;;;;;4989119;28;20133;-43
2023/10/25 01:10:53;;;;;;;10.18;7.13;;;8.40;99.90;;;;;;4993407;28;20076;-45
2023/10/25 01:13:19;;;;;;;8.70;7.25;;;8.40;99.90;;;;;;4992605;28;20371;-46
2023/10/25 01:15:45;;;;;;;11.70;7.18;;;8.50;99.90;;;;;;4995198;28;20101;-44
2023/10/25 01:18:11;;;;;;;13.60;7.68;;;8.40;99.90;;;;;;4992530;28;20045;-44
2023/10/25 01:20:37;;;;;;;14.27;7.57;;;8.40;99.90;;;;;;4995563;28;20038;-44
2023/10/25 01:23:02;;;;;;;12.57;7.95;;;8.40;99.90;;;;;;4993513;28;20038;-44
2023/10/25 01:25:28;;;;;;;11.23;7.63;;;8.50;99.90;;;;;;4988006;28;20078;-44
2023/10/25 01:27:54;;;;;;;14.57;7.78;;;8.40;99.90;;;;;;4991624;28;20121;-45
2023/10/25 01:30:20;;;;;;;13.63;8.20;;;8.40;99.90;;;;;;4991517;28;20046;-47
2023/10/25 01:32:45;;;;;;;10.70;7.60;;;8.30;99.90;;;;;;4991374;28;20052;-45
2023/10/25 01:35:11;;;;;;;12.50;7.90;;;8.30;99.90;;;;;;4992181;28;20394;-43
2023/10/25 01:37:37;;;;;;;13.68;7.95;;;8.30;99.90;;;;;;4991668;28;20092;-43
2023/10/25 01:40:03;;;;;;;14.75;8.20;;;8.30;99.90;;;;;;4991713;28;20525;-43
2023/10/25 01:42:29;;;;;;;11.32;8.05;;;8.40;99.90;;;;;;4990073;28;20054;-45
2023/10/25 01:44:55;;;;;;;13.18;8.07;;;8.30;99.90;;;;;;4989597;28;20057;-45
2023/10/25 01:47:20;;;;;;;13.57;8.68;;;8.30;99.90;;;;;;4991546;28;20479;-45
2023/10/25 01:49:46;;;;;;;14.40;8.65;;;8.40;99.90;;;;;;4990828;28;20105;-44
2023/10/25 01:52:12;;;;;;;14.82;8.57;;;8.40;99.90;;;;;;4991273;28;20050;-46
2023/10/25 01:54:40;;;;;;;15.10;8.13;;;8.50;99.90;;;;;;4990259;28;20493;-45
2023/10/25 01:57:06;;;;;;;12.07;8.25;;;8.40;99.90;;;;;;4991499;28;20042;-43
2023/10/25 01:59:32;;;;;;;18.10;9.10;;;8.50;99.90;;;;;;4990895;28;20118;-45
2023/10/25 02:01:57;;;;;;;16.77;9.05;;;8.40;99.90;;;;;;4991357;28;20513;-44
2023/10/25 02:04:23;;;;;;;12.52;8.75;;;8.50;99.90;;;;;;4991538;28;20034;-45
2023/10/25 02:06:51;;;;;;;13.15;8.75;;;8.50;99.90;;;;;;4992798;28;20190;-45
2023/10/25 02:09:18;;;;;;;15.55;9.50;;;8.50;99.90;;;;;;4992732;28;20474;-43
2023/10/25 02:11:43;;;;;;;13.50;8.80;;;8.40;99.90;;;;;;4989677;28;20065;-43
2023/10/25 02:14:09;;;;;;;11.45;8.27;;;8.40;99.90;;;;;;4990983;28;20039;-44
2023/10/25 02:16:34;;;;;;;14.32;9.35;;;8.40;99.90;;;;;;4987308;28;20070;-44
2023/10/25 02:19:00;;;;;;;14.23;9.00;;;8.50;99.90;;;;;;4991222;28;20097;-42
2023/10/25 02:21:26;;;;;;;13.85;8.80;;;8.40;99.90;;;;;;4991663;28;20128;-43
2023/10/25 02:23:55;;;;;;;12.68;9.07;;;8.40;99.90;;;;;;4990911;28;20066;-46
2023/10/25 02:26:20;;;;;;;12.48;8.88;;;8.40;99.90;;;;;;4993579;28;20042;-44
2023/10/25 02:28:46;;;;;;;15.75;9.50;;;8.40;99.90;;;;;;4991422;28;20101;-44
2023/10/25 02:31:12;;;;;;;12.98;9.18;;;8.40;99.90;;;;;;4988929;28;20069;-44
2023/10/25 02:33:38;;;;;;;15.68;8.88;;;8.30;99.90;;;;;;4992050;28;20034;-44
2023/10/25 02:36:04;;;;;;;11.52;8.48;;;8.40;99.90;;;;;;4986235;28;20047;-42
2023/10/25 02:38:30;;;;;;;12.20;8.90;;;8.40;99.90;;;;;;4996279;28;20467;-44
2023/10/25 02:40:56;;;;;;;13.73;8.35;;;8.30;99.90;;;;;;4990660;28;20048;-45
2023/10/25 02:43:21;;;;;;;16.45;8.35;;;8.30;99.90;;;;;;4994482;28;20113;-45
2023/10/25 02:45:47;;;;;;;17.98;9.13;;;8.40;99.90;;;;;;4991180;28;20490;-43
2023/10/25 02:48:13;;;;;;;11.15;8.85;;;8.40;99.90;;;;;;4990115;28;20041;-44
2023/10/25 02:50:39;;;;;;;20.13;9.02;;;8.30;99.90;;;;;;4987658;28;20058;-45
2023/10/25 02:53:05;;;;;;;14.70;8.45;;;8.30;99.90;;;;;;4992288;28;20046;-43
2023/10/25 02:55:33;;;;;;;17.38;8.80;;;8.30;99.90;;;;;;4990063;28;20118;-44
2023/10/25 02:57:58;;;;;;;13.70;8.15;;;8.30;99.90;;;;;;4990482;28;20092;-42
2023/10/25 03:00:24;;;;;;;13.48;8.40;;;8.30;99.90;;;;;;4991284;28;20034;-46
2023/10/25 03:02:50;;;;;;;12.45;8.40;;;8.30;99.90;;;;;;4994198;28;20765;-42
2023/10/25 03:05:16;;;;;;;15.98;8.25;;;8.30;99.90;;;;;;4993639;28;20085;-43
2023/10/25 03:07:41;;;;;;;10.80;8.18;;;8.20;99.90;;;;;;4992237;28;20450;-43
2023/10/25 03:10:07;;;;;;;12.52;7.70;;;8.30;99.90;;;;;;4991728;28;20132;-43
2023/10/25 03:12:33;;;;;;;11.50;7.70;;;8.20;99.90;;;;;;4993667;28;20046;-44
2023/10/25 03:15:00;;;;;;;14.48;8.25;;;8.20;99.90;;;;;;4991981;28;20042;-46
2023/10/25 03:17:27;;;;;;;15.63;8.05;;;8.20;99.90;;;;;;4994165;28;20038;-47
2023/10/25 03:19:53;;;;;;;15.57;7.55;;;8.30;99.90;;;;;;4996179;28;20451;-47
2023/10/25 03:22:18;;;;;;;11.27;8.07;;;8.20;99.90;;;;;;4994153;28;20073;-42
2023/10/25 03:24:44;;;;;;;11.18;7.50;;;8.20;99.90;;;;;;4993435;28;20046;-43
2023/10/25 03:27:09;;;;;;;14.23;7.50;;;8.20;99.90;;;;;;4996359;28;20494;-43
2023/10/25 03:29:36;;;;;;;13.80;7.07;;;8.20;99.90;;;;;;4994212;28;20042;-43
2023/10/25 03:32:02;;;;;;;13.38;7.55;;;8.20;99.90;;;;;;4993997;28;20038;-46
2023/10/25 03:34:28;;;;;;;12.98;7.70;;;8.20;99.90;;;;;;4994978;28;20104;-43
2023/10/25 03:36:54;;;;;;;12.05;7.68;;;8.20;99.90;;;;;;4991433;28;20034;-43
2023/10/25 03:39:20;;;;;;;12.63;7.88;;;;;;;;;;4993424;28;20057;-43
2023/10/25 03:41:45;;;;;;;13.85;7.68;;;8.10;99.90;;;;;;4992595;28;20129;-43
2023/10/25 03:44:13;;;;;;;14.80;7.78;;;8.20;99.90;;;;;;4993857;28;20128;-47
2023/10/25 03:46:38;;;;;;;10.70;7.07;;;8.10;99.90;;;;;;4993372;28;20034;-48
2023/10/25 03:49:04;;;;;;;11.75;6.88;;;8.00;99.90;;;;;;4994382;28;20038;-44
2023/10/25 03:51:30;;;;;;;15.20;7.57;;;8.00;99.90;;;;;;4993704;28;20125;-43
2023/10/25 03:53:56;;;;;;;11.98;7.40;;;8.10;99.90;;;;;;4994991;28;20046;-43
2023/10/25 03:56:22;;;;;;;13.20;7.47;;;;;;;;;;4993887;28;20096;-44
2023/10/25 03:58:48;;;;;;;12.45;7.50;;;;;;;;;;4993333;28;20034;-46
2023/10/25 04:01:14;;;;;;;10.57;7.00;;;8.00;99.90;;;;;;4990717;28;20097;-43
2023/10/25 04:03:40;;;;;;;17.63;7.43;;;7.90;99.90;;;;;;4996657;28;20077;-44
2023/10/25 04:06:09;;;;;;;14.73;7.57;;;8.00;99.90;;;;;;4992865;28;20192;-43
2023/10/25 04:08:35;;;;;;;15.32;7.38;;;7.80;99.90;;;;;;4993416;28;20038;-43
2023/10/25 04:11:01;;;;;;;11.10;7.57;;;7.90;99.90;;;;;;4993720;28;20034;-43
2023/10/25 04:13:27;;;;;;;10.23;7.40;;;7.80;99.90;;;;;;4990470;28;20367;-43
2023/10/25 04:15:57;;;;;;;17.02;8.27;;;7.80;99.90;;;;;;4994154;28;20042;-44
2023/10/25 04:18:24;;;;;;;12.68;7.50;;;7.80;99.90;;;;;;4991158;28;20074;-43
2023/10/25 04:20:50;;;;;;;14.95;7.95;;;7.80;99.90;;;;;;4990231;28;20077;-46
2023/10/25 04:23:16;;;;;;;17.55;8.02;;;7.80;99.90;;;;;;4991417;28;20426;-44
2023/10/25 04:25:41;;;;;;;13.40;8.07;;;7.80;99.90;;;;;;4993842;28;20534;-42
2023/10/25 04:28:07;;;;;;;11.13;8.10;;;7.80;99.90;;;;;;4990226;28;20130;-46
2023/10/25 04:30:33;;;;;;;14.77;7.90;;;7.70;99.90;;;;;;4990820;28;20045;-42
2023/10/25 04:32:59;;;;;;;15.02;8.35;;;7.80;99.90;;;;;;4993564;28;20037;-43
2023/10/25 04:35:24;;;;;;;14.40;8.73;;;7.80;99.90;;;;;;4991462;28;20046;-43
2023/10/25 04:37:50;;;;;;;12.30;8.52;;;7.70;99.90;;;;;;4992687;28;20103;-44
2023/10/25 04:40:15;;;;;;;14.35;8.43;;;7.80;99.90;;;;;;4991579;28;20046;-45
2023/10/25 04:42:41;;;;;;;15.00;8.80;;;7.80;99.90;;;;;;4991951;28;20396;-44
2023/10/25 04:45:07;;;;;;;16.75;8.90;;;7.80;99.90;;;;;;4991520;28;20058;-42
2023/10/25 04:47:33;;;;;;;13.98;9.35;;;7.80;99.90;;;;;;4989893;28;20049;-46
2023/10/25 04:50:01;;;;;;;18.77;9.23;;;7.90;99.90;;;;;;4994815;28;20034;-43
2023/10/25 04:52:26;;;;;;;;;;;7.80;99.90;;;;;;4975224;28;20046;-43
2023/10/25 04:54:52;;;;;;;15.20;9.15;;;7.90;99.90;;;;;;4991984;28;19940;-46
2023/10/25 04:57:18;;;;;;;13.93;9.27;;;7.80;99.90;;;;;;4993208;28;20133;-47
2023/10/25 04:59:43;;;;;;;15.43;8.82;;;7.70;99.90;;;;;;4994555;28;20358;-42
2023/10/25 05:02:09;;;;;;;15.73;9.65;;;7.70;99.90;;;;;;4991096;28;20050;-42
2023/10/25 05:04:35;;;;;;;14.63;9.10;;;7.70;99.90;;;;;;4990170;28;20395;-44
2023/10/25 05:07:01;;;;;;;14.82;8.77;;;7.70;99.90;;;;;;4990373;28;20056;-44
2023/10/25 05:09:27;;;;;;;17.30;9.50;;;7.60;99.90;;;;;;4992843;28;20117;-44
2023/10/25 05:11:59;;;;;;;15.23;9.25;;;7.70;99.90;;;;;;4995519;28;20038;-47
2023/10/25 05:14:25;;;;;;;16.33;10.05;;;7.60;99.90;;;;;;4991577;28;20042;-44
2023/10/25 05:16:51;;;;;;;14.75;9.38;;;7.60;99.90;;;;;;4990847;28;20046;-43
2023/10/25 05:19:17;;;;;;;16.70;9.32;;;7.60;99.90;;;;;;4992268;28;20367;-46
2023/10/25 05:21:44;;;;;;;19.80;8.82;;;7.60;99.90;;;;;;4992531;28;20517;-44
2023/10/25 05:24:10;;;;;;;14.20;9.10;;;7.50;99.90;;;;;;5001836;28;20046;-46
2023/10/25 05:26:36;;;;;;;14.13;8.85;;;7.50;99.90;;;;;;4996351;28;20390;-43
2023/10/25 05:29:03;;;;;;;17.20;8.77;;;7.50;99.90;;;;;;4991688;28;20042;-42
2023/10/25 05:31:33;;;;;;;13.65;9.07;;;7.50;99.90;;;;;;4991318;28;20069;-46
2023/10/25 05:33:59;;;;;;;13.95;8.52;;;7.50;99.90;;;;;;4992913;28;20065;-43
2023/10/25 05:36:25;;;;;;;13.65;8.48;;;7.50;99.90;;;;;;4995406;28;20473;-42
2023/10/25 05:38:50;;;;;;;13.68;8.77;;;7.40;99.90;;;;;;4994551;28;20034;-46
2023/10/25 05:41:22;;;;;;;13.80;8.85;;;7.40;99.90;;;;;;4990119;28;20494;-44
2023/10/25 05:44:00;;;;;;;15.38;8.90;;;7.40;99.90;;;;;;4992075;28;20117;-43
2023/10/25 05:46:26;;;;;;;13.95;9.18;;;7.40;99.90;;;;;;4992510;28;20401;-43
2023/10/25 05:48:51;;;;;;;12.13;8.32;;;7.30;99.90;;;;;;4991369;28;20042;-44
2023/10/25 05:51:17;;;;;;;15.88;8.90;;;7.40;99.90;;;;;;4992095;28;20045;-45
2023/10/25 05:53:43;;;;;;;13.38;8.70;;;7.30;99.90;;;;;;4992555;28;20051;-44
2023/10/25 05:56:09;;;;;;;11.93;8.50;;;7.30;99.90;;;;;;4987626;28;20054;-43
2023/10/25 05:58:35;;;;;;;10.38;8.32;;;7.30;99.90;;;;;;4991459;28;20433;-47
2023/10/25 06:01:08;;;;;;;12.57;8.82;;;7.30;99.90;;;;;;4991897;28;20042;-42
2023/10/25 06:03:35;;;;;;;15.40;8.70;;;7.30;99.90;;;;;;4995670;28;20437;-43
2023/10/25 06:06:02;;;;;;;17.00;9.05;;;7.40;99.90;;;;;;4997016;28;20042;-45
2023/10/25 06:08:28;;;;;;;14.65;8.77;;;7.30;99.90;;;;;;4992239;28;20046;-46
2023/10/25 06:10:54;;;;;;;12.43;8.80;;;7.30;99.90;;;;;;5001560;28;20033;-42
2023/10/25 06:13:20;;;;;;;12.95;8.85;;;7.30;99.90;;;;;;5005604;28;20042;-45
2023/10/25 06:15:46;;;;;;;17.80;8.60;;;7.30;99.90;;;;;;4993144;28;20034;-44
2023/10/25 06:18:12;;;;;;;19.65;8.85;;;7.30;99.90;;;;;;4783733;23;20062;-42
2023/10/25 06:20:38;;;;;;;8.80;7.85;;;7.30;99.90;;;;;;4945009;29;20181;-44
2023/10/25 06:23:03;;;;;;;15.00;8.77;;;7.30;99.90;;;;;;4965687;28;20130;-44
2023/10/25 06:25:30;;;;;;;11.80;8.38;;;7.20;99.90;;;;;;4942465;28;20051;-44
2023/10/25 06:27:57;;;;;;;16.05;9.02;;;7.40;99.90;;;;;;4957205;28;20126;-43
2023/10/25 06:30:24;;;;;;;15.50;8.65;;;7.30;99.90;;;;;;4948099;29;20422;-45
2023/10/25 06:32:49;;;;;;;16.75;9.43;;;7.30;99.90;;;;;;4953786;29;20048;-45
2023/10/25 06:35:15;;;;;;;18.27;9.40;;;7.40;99.90;;;;;;4964386;28;20047;-44
2023/10/25 06:37:41;;;;;;;13.82;8.23;;;7.40;99.90;;;;;;4963337;28;20054;-43
2023/10/25 06:40:07;;;;;;;12.82;9.20;;;7.40;99.90;;;;;;4952321;28;20056;-45
2023/10/25 06:42:33;;;;;;;15.23;9.57;;;7.40;99.90;;;;;;4966191;28;20451;-44
2023/10/25 06:44:59;;;;;;;19.20;10.07;;;7.40;99.90;;;;;;4962718;28;20130;-47
2023/10/25 06:47:26;;;;;;;16.98;9.48;;;7.50;99.90;;;;;;4952043;28;20069;-44
2023/10/25 06:49:52;;;;;;;17.33;9.90;;;7.60;99.90;;;;;;4967030;28;20047;-45
2023/10/25 06:52:18;;;;;;;23.55;10.13;;;7.50;99.90;;;;;;4967140;28;20042;-45
2023/10/25 06:54:44;;;;;;;14.68;9.68;;;7.60;99.90;;;;;;4955720;28;20122;-43
2023/10/25 06:57:10;;;;;;;16.45;10.05;;;7.50;99.90;;;;;;4973863;28;20470;-43
2023/10/25 06:59:37;;;;;;;17.27;10.20;;;7.60;99.90;;;;;;4960746;28;20388;-44
2023/10/25 07:02:26;;;;;;;14.15;9.38;;;7.70;99.90;;;;;;4968979;28;20494;-43
2023/10/25 07:05:00;;;;;;;14.75;10.70;;;7.70;99.90;;;;;;4923162;28;20051;-44
2023/10/25 07:07:32;;;;;;;17.33;11.13;;;7.90;99.90;;;;;;4967680;28;20384;-43
2023/10/25 07:09:58;;;;;;;13.88;11.05;;;7.90;99.90;;;;;;4961252;28;20047;-46
2023/10/25 07:12:23;;;;;;;16.98;10.95;;;8.00;99.90;;;;;;4956553;28;20357;-45
2023/10/25 07:14:49;;;;;;;16.55;11.55;;;8.00;99.90;;;;;;4959405;28;20118;-45
2023/10/25 07:17:14;;;;;;;22.92;11.85;;;8.20;99.90;;;;;;4954846;29;20495;-43
2023/10/25 07:19:43;;;;;;;16.60;11.40;;;8.20;99.90;;;;;;4960455;28;20051;-44
2023/10/25 07:22:09;;;;;;;15.18;11.02;;;8.30;99.90;;;;;;4971827;28;20116;-45
2023/10/25 07:24:35;;;;;;;18.77;11.45;;;8.40;99.90;;;;;;4975846;28;20047;-44
2023/10/25 07:27:01;;;;;;;18.50;11.32;;;8.40;99.90;;;;;;4971706;28;20470;-43
2023/10/25 07:29:26;;;;;;;18.25;10.90;;;8.50;99.90;;;;;;4973130;28;20101;-45
2023/10/25 07:31:52;;;;;;;14.25;10.60;;;8.60;99.90;;;;;;4960614;28;20473;-44
2023/10/25 07:34:17;;;;;;;15.48;10.75;;;8.60;99.90;;;;;;4962895;28;20043;-43
2023/10/25 07:36:43;;;;;;;16.75;10.32;;;8.70;99.90;;;;;;4962255;28;20118;-44
2023/10/25 07:39:09;;;;;;;12.45;9.82;;;8.70;99.90;;;;;;4964822;28;20043;-44
2023/10/25 07:41:34;;;;;;;16.17;9.80;;;8.70;99.90;;;;;;4973161;28;20406;-44
2023/10/25 07:44:01;;;;;;;16.80;9.68;;;8.80;99.90;;;;;;4974716;28;20043;-46
2023/10/25 07:46:27;;;;;;;12.80;9.90;;;;;;;;;;4974756;28;20078;-43
2023/10/25 07:48:52;;;;;;;15.77;9.88;;;8.90;99.90;;;;;;4972729;28;20446;-44
2023/10/25 07:51:18;;;;;;;13.60;9.23;;;8.90;99.90;;;;;;4959737;28;20039;-44
2023/10/25 07:53:44;;;;;;;15.23;9.10;;;9.00;99.90;;;;;;4948950;29;20039;-46
2023/10/25 07:56:09;;;;;;;13.18;8.98;;;9.10;99.90;;;;;;4939159;29;20078;-46
2023/10/25 07:58:35;;;;;;;13.27;9.55;;;9.10;99.90;;;;;;4971611;28;20117;-46
2023/10/25 08:01:01;;;;;;;14.48;9.82;;;9.20;99.90;;;;;;4957129;28;20074;-43
2023/10/25 08:03:28;;;;;;;14.80;8.95;;;9.30;99.90;;;;;;4960438;28;20031;-45
2023/10/25 08:05:55;;;;;;;13.15;9.00;;;9.30;99.90;;;;;;4956478;28;20122;-47
2023/10/25 08:08:21;;;;;;;12.95;9.10;;;9.40;99.90;;;;;;4956896;28;20105;-45
2023/10/25 08:10:47;;;;;;;14.30;8.68;;;9.40;99.90;;;;;;4955650;29;20043;-44
2023/10/25 08:13:12;;;;;;;15.52;8.30;;;9.50;99.90;;;;;;4964304;28;20509;-44
2023/10/25 08:15:39;;;;;;;13.52;8.07;;;9.60;99.90;;;;;;4973523;28;20039;-45
2023/10/25 08:18:05;;;;;;;11.95;7.50;;;9.60;99.90;;;;;;4973920;28;20058;-46
2023/10/25 08:20:36;;;;;;;10.10;7.50;;;9.60;99.90;;;;;;4974939;28;20499;-44
2023/10/25 08:23:01;;;;;;;14.02;8.02;;;9.70;99.90;;;;;;4951043;28;20295;-43
2023/10/25 08:25:27;;;;;;;11.63;7.63;;;9.70;99.90;;;;;;4973994;28;20047;-45
2023/10/25 08:27:52;;;;;;;13.02;8.07;;;9.80;99.90;;;;;;4937416;29;20046;-46
2023/10/25 08:30:20;;;;;;;12.82;7.85;;;9.80;99.90;;;;;;4955681;28;20377;-45
2023/10/25 08:32:46;;;;;;;;;;;9.80;99.90;;;;;;4963601;28;20070;-43
2023/10/25 08:35:12;;;;;;;12.48;7.45;;;9.90;99.90;;;;;;4972509;28;19929;-47
2023/10/25 08:37:37;;;;;;;13.88;7.57;;;10.00;99.90;;;;;;4969363;28;20115;-45
2023/10/25 08:40:03;;;;;;;11.05;7.80;;;10.00;99.90;;;;;;4951299;28;20051;-45
2023/10/25 08:42:29;;;;;;;13.23;8.18;;;10.10;99.90;;;;;;4965486;28;20603;-45
2023/10/25 08:44:55;;;;;;;13.05;8.38;;;;;;;;;;4940631;28;20046;-45
2023/10/25 08:47:20;;;;;;;11.23;7.93;;;10.10;99.90;;;;;;4972224;28;20053;-49
2023/10/25 08:49:46;;;;;;;11.57;8.40;;;10.20;99.90;;;;;;4970620;28;20348;-46
2023/10/25 08:52:12;;;;;;;12.82;8.23;;;10.20;99.90;;;;;;4972156;28;20039;-46
2023/10/25 08:54:38;;;;;;;10.32;8.02;;;10.20;99.90;;;;;;4972897;28;20644;-45
2023/10/25 08:57:07;;;;;;;11.48;7.60;;;10.30;99.90;;;;;;4973697;28;20113;-44
2023/10/25 08:59:43;;;;;;;11.02;8.02;;;10.50;99.90;;;;;;4963676;28;20513;-44
2023/10/25 09:02:11;;;;;;;12.82;7.80;;;10.50;99.90;;;;;;4970866;28;20453;-46
2023/10/25 09:04:37;;;;;;;10.10;7.18;;;10.60;99.90;;;;;;4955877;28;20074;-46
2023/10/25 09:07:07;;;;;;;9.48;7.57;;;10.70;99.90;;;;;;4973133;28;20046;-48
2023/10/25 09:09:42;;;;;;;9.73;6.85;;;10.80;99.90;;;;;;4962422;28;20062;-44
2023/10/25 09:12:19;;;;;;;7.88;6.88;;;10.80;99.90;;;;;;4950670;28;20130;-44
2023/10/25 09:14:48;;;;;;;10.82;6.60;;;11.00;99.90;;;;;;4953770;28;20319;-46
2023/10/25 09:17:14;;;;;;;9.18;6.25;;;11.00;99.90;;;;;;4955755;28;20047;-47
2023/10/25 09:19:47;;;;;;;12.73;6.90;;;10.90;99.90;;;;;;4962777;28;20124;-46
2023/10/25 09:22:23;;;;;;;12.82;7.10;;;10.90;99.90;;;;;;4956144;28;20127;-45
2023/10/25 09:24:54;;;;;;;10.32;6.60;;;10.90;99.90;;;;;;4966542;28;20042;-45
2023/10/25 09:27:20;;;;;;;9.68;6.82;;;10.80;99.90;;;;;;4960337;28;20051;-46
2023/10/25 09:29:46;;;;;;;12.48;6.63;;;10.90;99.90;;;;;;4968911;28;20158;-44
2023/10/25 09:32:12;;;;;;;11.48;6.57;;;10.90;99.90;;;;;;4960564;28;20059;-44
2023/10/25 09:34:38;;;;;;;7.68;6.32;;;11.00;99.90;;;;;;4959459;28;20096;-46
2023/10/25 09:37:06;;;;;;;11.35;6.63;;;11.00;99.90;;;;;;4969959;28;20063;-43
2023/10/25 09:39:32;;;;;;;9.30;6.55;;;11.00;99.90;;;;;;4967845;28;20233;-47
2023/10/25 09:42:02;;;;;;;9.02;6.30;;;11.10;99.90;;;;;;4970700;28;20127;-47
2023/10/25 09:44:34;;;;;;;9.60;6.20;;;11.10;99.90;;;;;;4965982;28;20063;-48
2023/10/25 09:47:00;;;;;;;13.15;6.50;;;11.20;99.90;;;;;;4970251;28;20047;-46
2023/10/25 09:49:30;;;;;;;10.38;7.15;;;11.30;99.90;;;;;;4971356;28;20450;-47
2023/10/25 09:52:05;;;;;;;8.05;6.32;;;11.20;99.90;;;;;;4973447;28;20081;-46
2023/10/25 09:54:40;;;;;;;8.63;6.65;;;11.30;99.90;;;;;;4968892;28;20034;-47
2023/10/25 09:57:07;;;;;;;10.35;6.20;;;11.20;99.90;;;;;;4969950;28;20051;-46
2023/10/25 09:59:34;;;;;;;8.95;6.80;;;11.30;99.90;;;;;;4956537;28;20427;-44
2023/10/25 10:02:07;;;;;;;10.77;6.00;;;11.30;99.90;;;;;;4959332;28;20049;-49
2023/10/25 10:04:39;;;;;;;10.02;6.47;;;11.30;99.90;;;;;;4965477;28;20506;-44
2023/10/25 10:07:26;;;;;;;10.65;6.10;;;11.50;99.90;;;;;;4971784;28;20054;-48
2023/10/25 10:10:14;;;;;;;12.00;6.47;;;11.50;99.90;;;;;;4956110;28;20047;-47
2023/10/25 10:12:40;;;;;;;8.52;6.35;;;;;;;;;;4965561;28;20051;-45
2023/10/25 10:15:07;;;;;;;8.13;6.40;;;11.50;99.90;;;;;;4969076;28;20051;-44
2023/10/25 10:17:36;;;;;;;10.05;6.00;;;11.50;99.90;;;;;;4967526;28;20063;-45
2023/10/25 10:20:05;;;;;;;10.00;6.10;;;11.50;99.90;;;;;;4938439;28;20055;-46
2023/10/25 10:22:31;;;;;;;11.00;5.55;;;11.50;99.90;;;;;;4970807;28;20125;-46
2023/10/25 10:24:57;;;;;;;10.15;5.22;;;11.60;99.90;;;;;;4972403;28;20081;-48
2023/10/25 10:27:41;;;;;;;12.00;5.57;;;11.70;99.90;;;;;;4968575;28;20042;-47
2023/10/25 10:30:41;;;;;;;9.63;5.30;;;11.70;99.90;;;;;;4966560;28;20410;-46
2023/10/25 10:33:13;;;;;;;6.07;5.07;;;11.80;99.90;;;;;;4958886;28;20437;-44
2023/10/25 10:35:48;;;;;;;6.10;4.90;;;11.80;99.90;;;;;;4954911;28;20147;-43
2023/10/25 10:38:14;;;;;;;8.90;4.78;;;11.90;99.90;;;;;;4963269;28;20039;-44
2023/10/25 10:40:40;;;;;;;10.60;4.70;;;11.90;99.90;;;;;;4969933;28;20122;-45
2023/10/25 10:43:07;;;;;;;6.13;4.00;;;11.80;99.90;;;;;;4957659;28;20031;-46
2023/10/25 10:45:34;;;;;;;7.53;4.82;;;11.80;99.90;;;;;;4962273;28;20053;-46
2023/10/25 10:48:21;;;;;;;10.70;4.88;;;11.80;99.90;;;;;;4967752;28;20522;-43
2023/10/25 10:50:49;;;;;;;6.35;4.32;;;11.80;99.90;;;;;;4965088;28;20094;-46
2023/10/25 10:53:15;;;;;;;8.18;5.07;;;11.80;99.90;;;;;;4941792;28;20039;-44
2023/10/25 10:55:40;;;;;;;7.32;4.70;;;11.80;99.90;;;;;;4966197;28;20046;-44
2023/10/25 10:58:07;;;;;;;6.95;4.32;;;11.80;99.90;;;;;;4954796;28;20043;-46
2023/10/25 11:00:33;;;;;;;7.35;4.85;;;11.70;99.90;;;;;;4938647;28;20059;-47
2023/10/25 11:03:02;;;;;;;5.90;4.35;;;11.80;99.90;;;;;;4966602;28;20099;-46
2023/10/25 11:05:30;;;;;;;6.22;4.30;;;11.80;99.90;;;;;;4969568;28;20141;-45
2023/10/25 11:07:55;;;;;;;7.67;4.20;;;11.70;99.90;;;;;;4971795;28;20049;-46
2023/10/25 11:10:21;;;;;;;11.10;5.47;;;11.70;99.90;;;;;;4972366;28;20118;-45
2023/10/25 11:12:47;;;;;;;10.40;4.45;;;11.60;99.90;;;;;;4969690;28;20043;-45
2023/10/25 11:15:13;;;;;;;7.65;4.93;;;11.60;99.90;;;;;;4971343;28;20044;-45
2023/10/25 11:17:39;;;;;;;9.27;4.68;;;11.60;99.90;;;;;;4959431;28;20059;-45
2023/10/25 11:20:06;;;;;;;10.05;4.65;;;11.50;99.90;;;;;;4947630;28;20066;-45
2023/10/25 11:22:32;;;;;;;6.13;4.88;;;11.40;99.90;;;;;;4968302;28;20513;-45
2023/10/25 11:24:59;;;;;;;9.27;5.00;;;11.50;99.90;;;;;;4957265;28;20070;-45
2023/10/25 11:27:32;;;;;;;7.63;4.95;;;11.40;99.90;;;;;;4962014;28;20531;-45
2023/10/25 11:29:58;;;;;;;9.82;5.05;;;11.30;99.90;;;;;;4953000;28;20054;-46
2023/10/25 11:32:24;;;;;;;8.30;5.20;;;11.30;99.90;;;;;;4968232;28;20050;-48
2023/10/25 11:34:54;;;;;;;10.77;5.00;;;11.20;99.90;;;;;;4964321;28;20383;-46
2023/10/25 11:37:20;;;;;;;9.63;5.72;;;11.30;99.90;;;;;;4955451;28;20407;-45
2023/10/25 11:39:57;;;;;;;11.88;5.72;;;11.20;99.90;;;;;;4963177;28;20482;-47
2023/10/25 11:42:26;;;;;;;9.95;5.10;;;11.20;99.90;;;;;;4969404;28;20038;-46
2023/10/25 11:44:52;;;;;;;6.95;5.00;;;11.20;99.90;;;;;;4972306;28;20411;-45
2023/10/25 11:47:19;;;;;;;7.60;4.50;;;11.20;99.90;;;;;;4970988;28;20089;-45
2023/10/25 11:50:09;;;;;;;11.27;5.30;;;11.20;99.90;;;;;;4964896;28;20043;-45
2023/10/25 11:52:34;;;;;;;5.95;4.03;;;11.20;99.90;;;;;;4966214;28;20047;-45
2023/10/25 11:55:01;;;;;;;6.88;4.07;;;11.20;99.90;;;;;;4967486;28;20054;-46
2023/10/25 11:57:32;;;;;;;6.03;3.97;;;11.20;99.90;;;;;;4952173;28;20444;-45
2023/10/25 11:59:58;;;;;;;5.75;3.80;;;11.20;99.90;;;;;;4967887;28;20062;-45
2023/10/25 12:02:25;;;;;;;9.05;4.25;;;11.30;99.90;;;;;;4964429;28;20337;-44
2023/10/25 12:04:51;;;;;;;8.30;3.90;;;11.30;99.90;;;;;;4969590;28;20505;-48
2023/10/25 12:07:20;;;;;;;6.57;4.30;;;11.30;99.90;;;;;;4971408;28;20073;-45
2023/10/25 12:09:46;;;;;;;6.57;4.30;;;11.40;99.90;;;;;;4972739;28;20459;-45
2023/10/25 12:12:12;;;;;;;7.30;4.57;;;11.40;99.90;;;;;;4971686;28;20043;-46
2023/10/25 12:14:38;;;;;;;8.48;4.60;;;11.40;99.90;;;;;;4970806;28;20344;-45
2023/10/25 12:17:06;;;;;;;6.93;4.65;;;11.40;99.90;;;;;;4970758;28;20466;-45
2023/10/25 12:19:39;;;;;;;9.17;4.50;;;11.40;99.90;;;;;;4955291;28;20043;-45
2023/10/25 12:22:09;;;;;;;10.60;4.68;;;11.50;99.90;;;;;;4970269;28;20301;-47
2023/10/25 12:24:37;;;;;;;9.27;4.82;;;11.50;99.90;;;;;;4963669;28;20051;-45
2023/10/25 12:27:04;;;;;;;9.57;4.23;;;11.40;99.90;;;;;;4974836;28;20035;-44
2023/10/25 12:29:30;;;;;;;6.72;4.25;;;11.50;99.90;;;;;;4967448;28;20146;-45
2023/10/25 12:31:56;;;;;;;8.05;4.70;;;11.50;99.90;;;;;;4967881;28;20078;-45
2023/10/25 12:34:22;;;;;;;7.90;4.20;;;11.60;99.90;;;;;;4971307;28;20073;-45
2023/10/25 12:36:49;;;;;;;6.20;4.68;;;11.60;99.90;;;;;;4965808;28;20046;-46
2023/10/25 12:39:16;;;;;;;6.15;4.55;;;11.60;99.90;;;;;;4948373;28;20042;-46
2023/10/25 12:41:42;;;;;;;6.43;4.38;;;11.60;99.90;;;;;;4957679;28;20054;-45
2023/10/25 12:44:08;;;;;;;6.65;4.30;;;11.60;99.90;;;;;;4955525;28;20371;-44
2023/10/25 12:46:37;;;;;;;8.57;4.47;;;11.70;99.90;;;;;;4964722;28;20047;-47